createdAt,value
2018-09-21T00:00:44.036Z,24.16
2018-09-21T00:03:12.706Z,23.98
2018-09-21T00:05:41.082Z,23.91
2018-09-21T00:08:09.435Z,23.87
2018-09-21T00:10:37.765Z,23.81
2018-09-21T00:13:06.163Z,23.76
2018-09-21T00:15:34.671Z,23.95
2018-09-21T00:18:02.935Z,23.99
2018-09-21T00:20:31.283Z,23.90
2018-09-21T00:22:59.578Z,23.88
2018-09-21T00:25:27.935Z,23.85
2018-09-21T00:27:56.288Z,23.42
2018-09-21T00:30:24.697Z,23.58
2018-09-21T00:32:52.968Z,23.74
2018-09-21T00:35:21.414Z,23.83
2018-09-21T00:37:49.789Z,23.61
2018-09-21T00:40:18.120Z,23.57
2018-09-21T00:42:46.485Z,23.64
2018-09-21T00:45:14.836Z,23.56
2018-09-21T00:47:43.120Z,23.59
2018-09-21T00:50:11.452Z,23.73
2018-09-21T00:52:39.839Z,23.69
2018-09-21T00:55:08.256Z,23.74
2018-09-21T00:57:36.601Z,23.75
2018-09-21T01:00:05.496Z,23.76
2018-09-21T01:02:33.955Z,23.84
2018-09-21T01:05:02.332Z,23.86
2018-09-21T01:07:30.810Z,23.76
2018-09-21T01:09:59.110Z,23.66
2018-09-21T01:12:27.484Z,23.61
2018-09-21T01:14:55.806Z,23.69
2018-09-21T01:17:24.512Z,23.58
2018-09-21T01:19:52.882Z,23.58
2018-09-21T01:22:21.235Z,23.58
2018-09-21T01:24:49.717Z,23.66
2018-09-21T01:27:18.053Z,23.56
2018-09-21T01:29:46.347Z,23.46
2018-09-21T01:32:14.797Z,23.69
2018-09-21T01:34:43.132Z,23.64
2018-09-21T01:37:11.448Z,23.77
2018-09-21T01:39:39.821Z,23.92
2018-09-21T01:42:08.123Z,23.99
2018-09-21T01:44:36.443Z,24.09
2018-09-21T01:47:04.990Z,24.04
2018-09-21T01:49:33.620Z,23.89
2018-09-21T01:52:02.730Z,23.77
2018-09-21T01:54:31.116Z,23.94
2018-09-21T01:56:59.441Z,23.83
2018-09-21T01:59:27.779Z,23.92
2018-09-21T02:01:56.110Z,23.79
2018-09-21T02:04:29.453Z,23.80
2018-09-21T02:06:57.855Z,23.78
2018-09-21T02:09:26.274Z,23.63
2018-09-21T02:11:54.582Z,23.74
2018-09-21T02:14:23.052Z,23.72
2018-09-21T02:16:51.652Z,23.72
2018-09-21T02:19:20.283Z,23.78
2018-09-21T02:21:48.681Z,23.83
2018-09-21T02:24:17.405Z,23.72
2018-09-21T02:26:45.707Z,23.77
2018-09-21T02:29:14.035Z,23.42
2018-09-21T02:31:42.397Z,23.65
2018-09-21T02:34:10.799Z,23.56
2018-09-21T02:36:39.218Z,23.53
2018-09-21T02:39:08.586Z,23.40
2018-09-21T02:41:37.262Z,23.38
2018-09-21T02:44:05.967Z,23.39
2018-09-21T02:46:34.729Z,23.38
2018-09-21T02:49:03.325Z,23.25
2018-09-21T02:51:33.027Z,23.25
2018-09-21T02:54:01.310Z,23.30
2018-09-21T02:56:29.729Z,23.25
2018-09-21T02:58:58.069Z,23.21
2018-09-21T03:01:26.566Z,23.06
2018-09-21T03:03:54.883Z,23.12
2018-09-21T03:06:23.260Z,23.09
2018-09-21T03:08:51.679Z,23.05
2018-09-21T03:11:19.968Z,22.97
2018-09-21T03:13:48.361Z,22.92
2018-09-21T03:16:16.671Z,22.95
2018-09-21T03:18:44.956Z,22.94
2018-09-21T03:21:13.312Z,22.87
2018-09-21T03:23:41.667Z,22.80
2018-09-21T03:26:09.927Z,22.86
2018-09-21T03:28:38.371Z,22.74
2018-09-21T03:31:07.219Z,22.52
2018-09-21T03:33:35.667Z,22.78
2018-09-21T03:36:04.021Z,22.68
2018-09-21T03:38:33.818Z,22.66
2018-09-21T03:41:02.128Z,22.50
2018-09-21T03:43:30.504Z,22.43
2018-09-21T03:45:58.824Z,22.40
2018-09-21T03:48:28.005Z,22.50
2018-09-21T03:50:56.351Z,22.47
2018-09-21T03:53:24.683Z,22.38
2018-09-21T03:55:53.753Z,22.33
2018-09-21T03:58:22.135Z,22.37
2018-09-21T04:00:50.467Z,22.23
2018-09-21T04:03:18.807Z,22.20
2018-09-21T04:05:47.165Z,22.26
2018-09-21T04:08:15.568Z,22.27
2018-09-21T04:10:43.949Z,22.30
2018-09-21T04:13:12.263Z,22.28
2018-09-21T04:15:40.600Z,22.23
2018-09-21T04:18:08.961Z,22.13
2018-09-21T04:20:37.272Z,23.20
2018-09-21T04:23:05.601Z,23.42
2018-09-21T04:25:33.836Z,23.19
2018-09-21T04:28:02.149Z,23.50
2018-09-21T04:30:30.492Z,23.53
2018-09-21T04:32:59.361Z,23.12
2018-09-21T04:35:27.834Z,23.06
2018-09-21T04:37:56.200Z,22.86
2018-09-21T04:40:24.741Z,22.78
2018-09-21T04:42:53.597Z,22.68
2018-09-21T04:45:22.190Z,22.72
2018-09-21T04:47:50.506Z,22.63
2018-09-21T04:50:18.837Z,22.56
2018-09-21T04:52:47.167Z,22.72
2018-09-21T04:55:15.606Z,22.67
2018-09-21T04:57:43.954Z,22.75
2018-09-21T05:00:12.352Z,22.94
2018-09-21T05:02:40.734Z,22.86
2018-09-21T05:05:09.127Z,23.11
2018-09-21T05:07:37.593Z,23.19
2018-09-21T05:10:06.116Z,23.66
2018-09-21T05:12:34.469Z,23.67
2018-09-21T05:15:02.767Z,24.07
2018-09-21T05:17:31.535Z,24.10
2018-09-21T05:20:00.603Z,24.27
2018-09-21T05:22:29.489Z,24.05
2018-09-21T05:24:57.979Z,24.33
2018-09-21T05:27:26.408Z,24.21
2018-09-21T05:29:54.796Z,24.19
2018-09-21T05:32:23.790Z,25.05
2018-09-21T05:34:52.188Z,24.87
2018-09-21T05:37:20.896Z,24.53
2018-09-21T05:39:49.216Z,25.28
2018-09-21T05:42:17.515Z,25.35
2018-09-21T05:44:45.834Z,24.85
2018-09-21T05:47:14.361Z,24.99
2018-09-21T05:49:42.924Z,25.27
2018-09-21T05:52:11.732Z,25.32
2018-09-21T05:54:40.040Z,25.33
2018-09-21T05:57:08.352Z,25.38
2018-09-21T05:59:36.692Z,25.22
2018-09-21T06:02:05.090Z,25.36
2018-09-21T06:04:33.500Z,25.10
2018-09-21T06:07:01.768Z,25.39
2018-09-21T06:09:30.099Z,25.42
2018-09-21T06:11:58.557Z,25.66
2018-09-21T06:14:26.999Z,25.37
2018-09-21T06:16:55.398Z,25.97
2018-09-21T06:19:23.700Z,26.16
2018-09-21T06:21:52.289Z,25.98
2018-09-21T06:24:21.615Z,26.51
2018-09-21T06:26:50.250Z,26.55
2018-09-21T06:29:19.099Z,26.79
2018-09-21T06:31:47.395Z,26.73
2018-09-21T06:34:15.731Z,26.84
2018-09-21T06:36:44.068Z,26.59
2018-09-21T06:39:12.673Z,26.60
2018-09-21T06:41:41.172Z,26.26
2018-09-21T06:44:10.901Z,26.79
2018-09-21T06:46:39.281Z,26.57
2018-09-21T06:49:07.630Z,26.67
2018-09-21T06:51:35.949Z,26.98
2018-09-21T06:54:04.261Z,26.70
2018-09-21T06:56:32.619Z,26.67
2018-09-21T06:59:00.904Z,26.64
2018-09-21T07:01:29.338Z,27.00
2018-09-21T07:03:57.645Z,27.20
2018-09-21T07:06:25.925Z,26.99
2018-09-21T07:08:54.270Z,27.50
2018-09-21T07:11:22.598Z,27.88
2018-09-21T07:13:50.979Z,27.69
2018-09-21T07:16:19.317Z,27.50
2018-09-21T07:18:47.581Z,28.29
2018-09-21T07:21:15.912Z,27.74
2018-09-21T07:23:44.254Z,27.64
2018-09-21T07:26:12.577Z,28.03
2018-09-21T07:28:40.896Z,28.55
2018-09-21T07:31:09.294Z,28.77
2018-09-21T07:33:37.655Z,29.07
2018-09-21T07:36:06.020Z,29.48
2018-09-21T07:38:34.526Z,29.59
2018-09-21T07:41:02.953Z,29.37
2018-09-21T07:43:31.408Z,30.08
2018-09-21T07:45:59.721Z,29.76
2018-09-21T07:48:28.027Z,29.53
2018-09-21T07:50:56.468Z,29.66
2018-09-21T07:53:24.794Z,29.90
2018-09-21T07:55:53.182Z,29.98
2018-09-21T07:58:21.692Z,30.00
2018-09-21T08:00:50.057Z,29.84
2018-09-21T08:03:18.482Z,30.36
2018-09-21T08:05:46.831Z,30.08
2018-09-21T08:08:15.217Z,30.55
2018-09-21T08:10:43.516Z,30.77
2018-09-21T08:13:11.808Z,30.80
2018-09-21T08:15:40.084Z,30.37
2018-09-21T08:18:08.371Z,31.07
2018-09-21T08:20:36.650Z,30.93
2018-09-21T08:23:04.990Z,31.04
2018-09-21T08:25:33.267Z,30.80
2018-09-21T08:28:01.643Z,31.24
2018-09-21T08:30:29.965Z,31.52
2018-09-21T08:32:58.229Z,31.36
2018-09-21T08:35:26.470Z,31.56
2018-09-21T08:37:54.826Z,31.68
2018-09-21T08:40:23.310Z,31.31
2018-09-21T08:42:51.559Z,31.96
2018-09-21T08:45:19.857Z,31.81
2018-09-21T08:47:48.098Z,31.91
2018-09-21T08:50:16.345Z,32.20
2018-09-21T08:52:44.640Z,32.11
2018-09-21T08:55:12.969Z,31.45
2018-09-21T08:57:41.257Z,31.82
2018-09-21T09:00:09.524Z,32.06
2018-09-21T09:02:37.822Z,31.91
2018-09-21T09:05:06.397Z,31.49
2018-09-21T09:07:34.743Z,31.75
2018-09-21T09:10:03.062Z,32.02
2018-09-21T09:12:31.320Z,32.04
2018-09-21T09:14:59.587Z,32.15
2018-09-21T09:17:27.953Z,32.12
2018-09-21T09:19:56.235Z,31.76
2018-09-21T09:22:24.493Z,31.95
2018-09-21T09:24:53.024Z,31.86
2018-09-21T09:27:21.378Z,32.37
2018-09-21T09:29:49.666Z,31.87
2018-09-21T09:32:17.946Z,31.72
2018-09-21T09:34:46.289Z,32.21
2018-09-21T09:37:14.596Z,31.77
2018-09-21T09:39:43.028Z,32.34
2018-09-21T09:42:11.291Z,31.91
2018-09-21T09:44:39.592Z,31.75
2018-09-21T09:47:07.864Z,31.73
2018-09-21T09:49:36.303Z,32.39
2018-09-21T09:52:04.745Z,32.64
2018-09-21T09:54:33.160Z,33.20
2018-09-21T09:57:01.460Z,32.68
2018-09-21T09:59:29.783Z,33.25
2018-09-21T10:01:58.056Z,32.95
2018-09-21T10:04:26.384Z,32.42
2018-09-21T10:06:54.637Z,32.38
2018-09-21T10:09:22.903Z,32.34
2018-09-21T10:11:51.209Z,31.64
2018-09-21T10:14:19.469Z,32.26
2018-09-21T10:16:47.747Z,32.60
2018-09-21T10:19:16.016Z,32.44
2018-09-21T10:21:44.487Z,32.08
2018-09-21T10:24:12.823Z,32.06
2018-09-21T10:26:41.392Z,32.59
2018-09-21T10:29:09.677Z,32.54
2018-09-21T10:31:37.988Z,31.84
2018-09-21T10:34:06.392Z,30.88
2018-09-21T10:36:34.900Z,31.46
2018-09-21T10:39:03.286Z,31.76
2018-09-21T10:41:31.540Z,31.38
2018-09-21T10:43:59.867Z,31.90
2018-09-21T10:46:28.196Z,31.81
2018-09-21T10:48:56.536Z,31.77
2018-09-21T10:51:24.910Z,31.93
2018-09-21T10:53:53.202Z,32.32
2018-09-21T10:56:21.481Z,32.58
2018-09-21T10:58:49.838Z,32.16
2018-09-21T11:01:18.120Z,32.91
2018-09-21T11:03:46.872Z,32.63
2018-09-21T11:06:15.284Z,32.82
2018-09-21T11:08:43.657Z,32.89
2018-09-21T11:11:11.966Z,33.03
2018-09-21T11:13:40.456Z,32.80
2018-09-21T11:16:08.814Z,32.18
2018-09-21T11:18:37.039Z,32.22
2018-09-21T11:21:05.326Z,31.50
2018-09-21T11:23:34.346Z,31.71
2018-09-21T11:26:02.738Z,32.16
2018-09-21T11:28:31.022Z,31.51
2018-09-21T11:30:59.333Z,31.93
2018-09-21T11:33:27.616Z,32.15
2018-09-21T11:35:56.195Z,31.73
2018-09-21T11:38:24.722Z,32.36
2018-09-21T11:40:53.059Z,32.57
2018-09-21T11:43:21.511Z,31.79
2018-09-21T11:45:50.271Z,30.98
2018-09-21T11:48:18.797Z,31.67
2018-09-21T11:50:47.468Z,31.38
2018-09-21T11:53:16.167Z,32.15
2018-09-21T11:55:44.501Z,31.85
2018-09-21T11:58:13.384Z,32.09
2018-09-21T12:00:41.655Z,31.44
2018-09-21T12:03:10.089Z,31.97
2018-09-21T12:05:38.418Z,31.87
2018-09-21T12:08:06.698Z,31.38
2018-09-21T12:10:35.830Z,31.07
2018-09-21T12:13:04.226Z,31.83
2018-09-21T12:15:32.459Z,31.97
2018-09-21T12:18:00.864Z,31.64
2018-09-21T12:20:29.182Z,31.26
2018-09-21T12:22:57.588Z,31.54
2018-09-21T12:25:25.824Z,31.79
2018-09-21T12:27:54.370Z,31.49
2018-09-21T12:30:22.836Z,31.19
2018-09-21T12:32:51.095Z,31.33
2018-09-21T12:35:19.554Z,31.25
2018-09-21T12:37:47.868Z,31.09
2018-09-21T12:40:20.020Z,31.07
2018-09-21T12:42:48.269Z,31.16
2018-09-21T12:45:16.745Z,31.78
2018-09-21T12:47:45.007Z,31.91
2018-09-21T12:50:13.408Z,31.83
2018-09-21T12:52:41.688Z,32.20
2018-09-21T12:55:10.038Z,30.74
2018-09-21T12:57:38.557Z,30.99
2018-09-21T13:00:08.428Z,31.06
2018-09-21T13:02:37.254Z,30.91
2018-09-21T13:05:05.656Z,30.39
2018-09-21T13:07:34.006Z,30.94
2018-09-21T13:10:02.296Z,30.08
2018-09-21T13:12:30.677Z,30.07
2018-09-21T13:14:58.946Z,30.22
2018-09-21T13:17:27.546Z,30.97
2018-09-21T13:19:55.864Z,30.45
2018-09-21T13:22:24.322Z,30.54
2018-09-21T13:24:52.644Z,30.42
2018-09-21T13:27:20.897Z,30.66
2018-09-21T13:29:49.167Z,30.21
2018-09-21T13:32:17.648Z,31.20
2018-09-21T13:34:45.972Z,30.64
2018-09-21T13:37:14.263Z,30.72
2018-09-21T13:39:42.601Z,31.20
2018-09-21T13:42:10.985Z,31.02
2018-09-21T13:44:39.327Z,30.14
2018-09-21T13:47:07.645Z,29.59
2018-09-21T13:49:35.898Z,29.80
2018-09-21T13:52:04.353Z,30.12
2018-09-21T13:54:32.598Z,30.08
2018-09-21T13:57:00.941Z,29.91
2018-09-21T13:59:29.395Z,29.71
2018-09-21T14:01:57.760Z,29.69
2018-09-21T14:04:26.088Z,29.82
2018-09-21T14:06:54.427Z,30.04
2018-09-21T14:09:23.107Z,29.49
2018-09-21T14:11:51.550Z,29.84
2018-09-21T14:14:20.311Z,30.37
2018-09-21T14:16:48.626Z,30.31
2018-09-21T14:19:16.981Z,30.10
2018-09-21T14:21:45.308Z,29.76
2018-09-21T14:24:14.478Z,30.32
2018-09-21T14:26:42.815Z,29.83
2018-09-21T14:29:11.246Z,30.11
2018-09-21T14:31:39.528Z,30.58
2018-09-21T14:34:08.086Z,29.88
2018-09-21T14:36:36.382Z,30.31
2018-09-21T14:39:06.786Z,29.69
2018-09-21T14:41:35.115Z,29.40
2018-09-21T14:44:03.851Z,29.83
2018-09-21T14:46:32.196Z,30.02
2018-09-21T14:49:00.490Z,29.72
2018-09-21T14:51:29.056Z,29.68
2018-09-21T14:53:57.365Z,30.37
2018-09-21T14:56:25.712Z,29.36
2018-09-21T14:58:54.036Z,29.57
2018-09-21T15:01:22.491Z,28.82
2018-09-21T15:03:50.792Z,29.11
2018-09-21T15:06:19.407Z,29.15
2018-09-21T15:08:47.811Z,29.19
2018-09-21T15:11:16.195Z,29.56
2018-09-21T15:13:44.499Z,28.95
2018-09-21T15:16:12.853Z,29.40
2018-09-21T15:18:41.238Z,29.34
2018-09-21T15:21:09.504Z,28.86
2018-09-21T15:23:37.826Z,28.59
2018-09-21T15:26:06.240Z,29.10
2018-09-21T15:28:34.624Z,29.04
2018-09-21T15:31:02.904Z,28.77
2018-09-21T15:33:31.177Z,27.50
2018-09-21T15:35:59.675Z,27.46
2018-09-21T15:38:28.065Z,26.28
2018-09-21T15:40:56.364Z,26.64
2018-09-21T15:43:24.959Z,26.35
2018-09-21T15:45:53.265Z,25.79
2018-09-21T15:48:21.579Z,23.63
2018-09-21T15:50:50.136Z,22.71
2018-09-21T15:53:18.499Z,22.45
2018-09-21T15:55:46.829Z,21.38
2018-09-21T15:58:15.298Z,21.24
2018-09-21T16:00:43.590Z,20.56
2018-09-21T16:03:11.848Z,20.91
2018-09-21T16:05:40.207Z,20.12
2018-09-21T16:08:08.556Z,21.10
2018-09-21T16:10:36.959Z,20.11
2018-09-21T16:13:05.237Z,20.09
2018-09-21T16:15:33.534Z,20.04
2018-09-21T16:18:02.016Z,19.24
2018-09-21T16:20:30.289Z,19.13
2018-09-21T16:22:58.638Z,19.20
2018-09-21T16:25:27.229Z,19.80
2018-09-21T16:27:55.553Z,19.50
2018-09-21T16:30:23.948Z,19.27
2018-09-21T16:32:52.426Z,19.86
2018-09-21T16:35:20.808Z,19.69
2018-09-21T16:37:49.287Z,19.95
2018-09-21T16:40:20.040Z,19.64
2018-09-21T16:42:48.312Z,19.37
2018-09-21T16:45:16.637Z,18.95
2018-09-21T16:47:44.992Z,19.13
2018-09-21T16:50:13.421Z,20.19
2018-09-21T16:52:41.823Z,18.79
2018-09-21T16:55:10.117Z,19.03
2018-09-21T16:57:38.436Z,18.39
2018-09-21T17:00:07.923Z,18.73
2018-09-21T17:02:36.252Z,18.58
2018-09-21T17:05:04.588Z,19.56
2018-09-21T17:07:33.040Z,19.17
2018-09-21T17:10:01.470Z,19.83
2018-09-21T17:12:29.911Z,19.75
2018-09-21T17:14:59.170Z,20.25
2018-09-21T17:17:27.505Z,20.24
2018-09-21T17:19:55.859Z,20.42
2018-09-21T17:22:24.493Z,21.60
2018-09-21T17:24:52.836Z,22.36
2018-09-21T17:27:21.226Z,20.32
2018-09-21T17:29:49.830Z,19.84
2018-09-21T17:32:18.338Z,20.15
2018-09-21T17:34:46.600Z,19.62
2018-09-21T17:37:14.943Z,21.09
2018-09-21T17:39:43.226Z,19.70
2018-09-21T17:42:11.574Z,19.64
2018-09-21T17:44:39.986Z,19.49
2018-09-21T17:47:08.551Z,19.68
2018-09-21T17:49:36.856Z,20.05
2018-09-21T17:52:05.347Z,20.31
2018-09-21T17:54:33.776Z,20.15
2018-09-21T17:57:02.051Z,20.22
2018-09-21T17:59:30.397Z,19.13
2018-09-21T18:01:58.702Z,18.80
2018-09-21T18:04:27.106Z,18.98
2018-09-21T18:06:55.742Z,19.46
2018-09-21T18:09:24.089Z,18.56
2018-09-21T18:11:52.565Z,19.51
2018-09-21T18:14:21.111Z,19.60
2018-09-21T18:16:49.421Z,18.99
2018-09-21T18:19:17.801Z,19.36
2018-09-21T18:21:46.088Z,20.06
2018-09-21T18:24:14.452Z,19.72
2018-09-21T18:26:42.790Z,20.37
2018-09-21T18:29:11.901Z,20.37
2018-09-21T18:31:40.205Z,19.32
2018-09-21T18:34:08.536Z,19.26
2018-09-21T18:36:36.887Z,19.93
2018-09-21T18:39:06.736Z,19.40
2018-09-21T18:41:35.085Z,19.29
2018-09-21T18:44:03.959Z,20.13
2018-09-21T18:46:32.374Z,19.70
2018-09-21T18:49:00.978Z,19.39
2018-09-21T18:51:29.279Z,19.59
2018-09-21T18:53:57.631Z,19.32
2018-09-21T18:56:25.927Z,20.12
2018-09-21T18:58:54.296Z,19.55
2018-09-21T19:01:22.782Z,19.28
2018-09-21T19:03:51.232Z,20.03
2018-09-21T19:06:19.594Z,19.99
2018-09-21T19:08:48.074Z,19.29
2018-09-21T19:11:17.007Z,19.94
2018-09-21T19:13:45.376Z,20.72
2018-09-21T19:16:13.702Z,20.29
2018-09-21T19:18:42.048Z,20.11
2018-09-21T19:21:10.368Z,19.13
2018-09-21T19:23:38.681Z,18.69
2018-09-21T19:26:07.266Z,19.82
2018-09-21T19:28:35.698Z,20.02
2018-09-21T19:31:04.083Z,19.97
2018-09-21T19:33:32.450Z,19.77
2018-09-21T19:36:00.838Z,20.16
2018-09-21T19:38:29.197Z,20.31
2018-09-21T19:40:57.506Z,20.45
2018-09-21T19:43:25.876Z,20.44
2018-09-21T19:45:54.280Z,19.87
2018-09-21T19:48:22.727Z,20.65
2018-09-21T19:50:51.024Z,20.60
2018-09-21T19:53:19.347Z,20.37
2018-09-21T19:55:47.611Z,20.18
2018-09-21T19:58:16.106Z,19.57
2018-09-21T20:00:44.460Z,19.53
2018-09-21T20:03:12.800Z,19.89
2018-09-21T20:05:41.203Z,19.64
2018-09-21T20:08:09.481Z,19.92
2018-09-21T20:10:37.836Z,19.72
2018-09-21T20:13:06.317Z,19.41
2018-09-21T20:15:34.704Z,19.63
2018-09-21T20:18:03.095Z,19.83
2018-09-21T20:20:31.409Z,19.73
2018-09-21T20:22:59.842Z,19.78
2018-09-21T20:25:28.316Z,20.01
2018-09-21T20:27:56.632Z,20.51
2018-09-21T20:30:30.323Z,20.27
2018-09-21T20:33:04.046Z,19.27
2018-09-21T20:35:32.453Z,20.19
2018-09-21T20:38:00.799Z,20.49
2018-09-21T20:40:29.464Z,19.58
2018-09-21T20:42:57.797Z,19.69
2018-09-21T20:45:26.485Z,19.56
2018-09-21T20:47:54.847Z,19.35
2018-09-21T20:50:23.463Z,19.77
2018-09-21T20:52:51.886Z,20.89
2018-09-21T20:55:20.737Z,19.39
2018-09-21T20:57:49.152Z,19.66
2018-09-21T21:00:17.432Z,19.50
2018-09-21T21:02:45.934Z,20.10
2018-09-21T21:05:14.265Z,20.30
2018-09-21T21:07:42.648Z,20.21
2018-09-21T21:10:10.952Z,19.82
2018-09-21T21:12:39.220Z,19.63
2018-09-21T21:15:08.692Z,19.98
2018-09-21T21:17:37.371Z,20.21
2018-09-21T21:20:05.997Z,19.22
2018-09-21T21:22:34.465Z,19.92
2018-09-21T21:25:03.488Z,20.72
2018-09-21T21:27:31.975Z,20.92
2018-09-21T21:30:00.346Z,20.74
2018-09-21T21:32:28.701Z,20.50
2018-09-21T21:34:57.056Z,20.08
2018-09-21T21:37:25.672Z,19.82
2018-09-21T21:39:54.191Z,20.25
2018-09-21T21:42:22.644Z,20.47
2018-09-21T21:44:51.104Z,20.08
2018-09-21T21:47:26.124Z,20.96
2018-09-21T21:49:54.414Z,20.95
2018-09-21T21:52:22.756Z,21.65
2018-09-21T21:54:51.031Z,21.81
2018-09-21T21:57:19.441Z,21.14
2018-09-21T21:59:47.828Z,21.01
2018-09-21T22:02:16.178Z,21.13
2018-09-21T22:04:45.178Z,21.62
2018-09-21T22:07:13.689Z,21.22
2018-09-21T22:09:42.162Z,20.72
2018-09-21T22:12:16.101Z,20.90
2018-09-21T22:14:44.462Z,20.64
2018-09-21T22:17:13.537Z,20.52
2018-09-21T22:19:42.075Z,19.54
2018-09-21T22:22:10.410Z,20.25
2018-09-21T22:24:38.674Z,20.28
2018-09-21T22:27:07.073Z,20.07
2018-09-21T22:29:35.552Z,19.64
2018-09-21T22:32:03.889Z,20.05
2018-09-21T22:34:32.196Z,20.19
2018-09-21T22:37:00.550Z,19.87
2018-09-21T22:39:28.935Z,20.10
2018-09-21T22:41:57.281Z,20.06
2018-09-21T22:44:25.563Z,19.38
2018-09-21T22:46:55.527Z,19.73
2018-09-21T22:49:24.928Z,20.17
2018-09-21T22:51:53.301Z,19.93
2018-09-21T22:54:21.836Z,19.93
2018-09-21T22:56:50.361Z,19.79
2018-09-21T22:59:19.354Z,20.63
2018-09-21T23:01:49.208Z,19.50
2018-09-21T23:04:17.749Z,19.74
2018-09-21T23:06:46.373Z,19.60
2018-09-21T23:09:14.895Z,19.23
2018-09-21T23:11:44.026Z,19.58
2018-09-21T23:14:12.515Z,19.38
2018-09-21T23:16:41.194Z,19.60
2018-09-21T23:19:09.825Z,19.90
2018-09-21T23:21:38.595Z,19.53
2018-09-21T23:24:07.217Z,19.87
2018-09-21T23:26:35.572Z,19.50
2018-09-21T23:29:04.492Z,19.70
2018-09-21T23:31:33.506Z,20.05
2018-09-21T23:34:02.135Z,20.43
2018-09-21T23:36:30.655Z,20.15
2018-09-21T23:38:59.079Z,19.99
2018-09-21T23:41:27.671Z,19.12
2018-09-21T23:43:55.938Z,19.56
2018-09-21T23:46:24.269Z,19.61
2018-09-21T23:48:52.584Z,19.43
2018-09-21T23:51:20.955Z,19.44
2018-09-21T23:53:49.195Z,19.61
2018-09-21T23:56:17.565Z,19.36
2018-09-21T23:58:45.878Z,18.88
